createdAt,value
2023-01-17T00:00:36.117Z,1
2023-01-17T00:04:39.939Z,1
2023-01-17T00:06:36.477Z,1
2023-01-17T00:08:35.752Z,1
2023-01-17T00:10:36.948Z,1
2023-01-17T00:12:43.113Z,1
2023-01-17T00:14:35.590Z,1
2023-01-17T00:16:35.504Z,1
2023-01-17T00:18:39.152Z,1
2023-01-17T00:20:35.745Z,1
2023-01-17T00:22:36.009Z,1
2023-01-17T00:24:35.545Z,1
2023-01-17T00:26:39.932Z,1
2023-01-17T00:28:35.571Z,1
2023-01-17T00:30:35.705Z,1
2023-01-17T00:32:36.113Z,1
2023-01-17T00:34:36.151Z,1
2023-01-17T00:36:43.415Z,1
2023-01-17T00:38:36.281Z,1
2023-01-17T00:40:36.059Z,1
2023-01-17T00:42:36.600Z,1
2023-01-17T00:44:39.945Z,1
2023-01-17T00:46:36.260Z,1
2023-01-17T00:48:43.261Z,1
2023-01-17T00:50:36.879Z,1
2023-01-17T00:52:36.278Z,1
2023-01-17T00:54:43.299Z,1
2023-01-17T00:56:35.479Z,1
2023-01-17T00:58:39.500Z,1
2023-01-17T01:00:40.123Z,1
2023-01-17T01:02:39.567Z,1
2023-01-17T01:04:35.947Z,1
2023-01-17T01:06:35.682Z,1
2023-01-17T01:08:35.550Z,1
2023-01-17T01:10:36.219Z,1
2023-01-17T01:12:36.835Z,1
2023-01-17T01:14:37.100Z,1
2023-01-17T01:16:35.982Z,1
2023-01-17T01:18:41.313Z,1
2023-01-17T01:20:36.499Z,1
2023-01-17T01:22:42.781Z,1
2023-01-17T01:24:39.680Z,1
2023-01-17T01:26:35.581Z,1
2023-01-17T01:28:35.562Z,1
2023-01-17T01:30:35.567Z,1
2023-01-17T01:32:35.738Z,1
2023-01-17T01:34:36.362Z,1
2023-01-17T01:36:36.322Z,1
2023-01-17T01:38:36.852Z,1
2023-01-17T01:40:36.201Z,1
2023-01-17T01:42:35.875Z,1
2023-01-17T01:44:39.665Z,1
2023-01-17T01:46:35.686Z,1
2023-01-17T01:48:36.699Z,1
2023-01-17T01:50:37.010Z,1
2023-01-17T01:52:35.693Z,1
2023-01-17T01:54:39.926Z,1
2023-01-17T01:56:39.549Z,1
2023-01-17T01:58:36.781Z,1
2023-01-17T02:00:36.312Z,1
2023-01-17T02:02:38.679Z,1
2023-01-17T02:04:36.277Z,1
2023-01-17T02:06:36.401Z,1
2023-01-17T02:08:35.553Z,1
2023-01-17T02:10:43.005Z,1
2023-01-17T02:16:36.140Z,1
2023-01-17T02:18:35.540Z,1
2023-01-17T02:22:36.143Z,1
2023-01-17T02:24:36.376Z,1
2023-01-17T02:26:35.722Z,1
2023-01-17T02:28:40.067Z,1
2023-01-17T02:30:35.766Z,1
2023-01-17T02:32:36.580Z,1
2023-01-17T02:34:37.090Z,1
2023-01-17T02:36:35.566Z,1
2023-01-17T02:38:43.173Z,1
2023-01-17T02:40:36.372Z,1
2023-01-17T02:42:35.698Z,1
2023-01-17T02:46:35.553Z,1
2023-01-17T02:48:39.616Z,1
2023-01-17T02:50:36.688Z,1
2023-01-17T02:52:36.108Z,1
2023-01-17T02:54:36.277Z,1
2023-01-17T02:56:35.778Z,1
2023-01-17T02:58:36.035Z,1
2023-01-17T03:00:39.660Z,1
2023-01-17T03:02:42.688Z,1
2023-01-17T03:04:40.019Z,1
2023-01-17T03:06:36.109Z,1
2023-01-17T03:08:36.172Z,1
2023-01-17T03:10:35.760Z,1
2023-01-17T03:12:36.269Z,1
2023-01-17T03:14:43.203Z,1
2023-01-17T03:16:36.370Z,1
2023-01-17T03:18:35.636Z,1
2023-01-17T03:20:40.199Z,1
2023-01-17T03:22:36.178Z,1
2023-01-17T03:24:39.975Z,1
2023-01-17T03:26:36.676Z,1
2023-01-17T03:28:36.921Z,1
2023-01-17T03:30:36.177Z,1
2023-01-17T03:32:36.029Z,1
2023-01-17T03:34:36.501Z,1
2023-01-17T03:36:43.349Z,1
2023-01-17T03:38:39.488Z,1
2023-01-17T03:40:36.518Z,1
2023-01-17T03:42:36.381Z,1
2023-01-17T03:44:36.421Z,1
2023-01-17T03:46:35.665Z,1
2023-01-17T03:48:35.784Z,1
2023-01-17T03:50:35.545Z,1
2023-01-17T03:52:36.220Z,1
2023-01-17T03:54:40.223Z,1
2023-01-17T03:56:35.569Z,1
2023-01-17T03:58:36.641Z,1
2023-01-17T04:00:35.734Z,1
2023-01-17T04:02:36.630Z,1
2023-01-17T04:04:43.368Z,1
2023-01-17T04:06:36.071Z,1
2023-01-17T04:08:35.514Z,1
2023-01-17T04:10:36.785Z,1
2023-01-17T04:12:35.566Z,1
2023-01-17T04:14:36.350Z,1
2023-01-17T04:16:35.899Z,1
2023-01-17T04:18:36.364Z,1
2023-01-17T04:20:36.366Z,1
2023-01-17T04:22:37.302Z,1
2023-01-17T04:24:43.597Z,1
2023-01-17T04:26:36.281Z,1
2023-01-17T04:28:35.543Z,1
2023-01-17T04:30:35.782Z,1
2023-01-17T04:32:36.261Z,1
2023-01-17T04:34:36.416Z,1
2023-01-17T04:36:42.629Z,1
2023-01-17T04:38:35.589Z,1
2023-01-17T04:40:36.545Z,1
2023-01-17T04:42:40.051Z,1
2023-01-17T04:44:36.225Z,1
2023-01-17T04:46:35.730Z,1
2023-01-17T04:48:36.510Z,1
2023-01-17T04:50:36.456Z,1
2023-01-17T04:52:35.558Z,1
2023-01-17T04:54:37.053Z,1
2023-01-17T04:56:36.822Z,1
2023-01-17T04:58:39.759Z,1
2023-01-17T05:00:35.766Z,1
2023-01-17T05:04:36.206Z,1
2023-01-17T05:06:41.946Z,1
2023-01-17T05:08:39.977Z,1
2023-01-17T05:10:36.300Z,1
2023-01-17T05:12:40.199Z,1
2023-01-17T05:14:35.573Z,1
2023-01-17T05:16:36.173Z,1
2023-01-17T05:18:39.967Z,1
2023-01-17T05:20:35.740Z,1
2023-01-17T05:22:35.569Z,1
2023-01-17T05:24:36.953Z,1
2023-01-17T05:26:36.989Z,1
2023-01-17T05:28:40.256Z,1
2023-01-17T05:30:35.804Z,1
2023-01-17T05:32:36.691Z,1
2023-01-17T05:34:43.197Z,1
2023-01-17T05:36:36.722Z,1
2023-01-17T05:38:40.097Z,1
2023-01-17T05:40:40.146Z,1
2023-01-17T05:42:39.189Z,1
2023-01-17T05:44:35.622Z,1
2023-01-17T05:46:35.580Z,1
2023-01-17T05:48:40.084Z,1
2023-01-17T05:50:36.272Z,1
2023-01-17T05:52:38.737Z,1
2023-01-17T05:54:36.177Z,1
2023-01-17T05:58:36.221Z,1
2023-01-17T06:00:43.305Z,1
2023-01-17T06:04:35.608Z,0
2023-01-17T06:06:35.590Z,0
2023-01-17T06:08:36.173Z,0
2023-01-17T06:10:36.155Z,0.1
2023-01-17T06:12:36.287Z,0.1
2023-01-17T06:14:39.466Z,0.2
2023-01-17T06:16:35.685Z,0.3
2023-01-17T06:18:36.457Z,0.4
2023-01-17T06:20:36.363Z,0.5
2023-01-17T06:22:36.071Z,0.7
2023-01-17T06:24:35.826Z,1.1
2023-01-17T06:26:35.490Z,1.5
2023-01-17T06:28:36.490Z,2.1
2023-01-17T06:30:36.020Z,3
2023-01-17T06:32:35.488Z,4.5
2023-01-17T06:34:38.734Z,6.7
2023-01-17T06:36:36.329Z,9.5
2023-01-17T06:38:36.325Z,13.5
2023-01-17T06:40:40.561Z,19.1
2023-01-17T06:42:36.219Z,25.8
2023-01-17T06:44:36.109Z,34.8
2023-01-17T06:46:35.583Z,47
2023-01-17T06:48:36.094Z,60.3
2023-01-17T06:50:40.024Z,77.5
2023-01-17T06:52:36.204Z,99.5
2023-01-17T06:54:39.622Z,121.5
2023-01-17T06:56:39.567Z,148.4
2023-01-17T06:58:35.939Z,172.4
2023-01-17T07:00:35.608Z,210.6
2023-01-17T07:02:35.769Z,244.7
2023-01-17T07:04:36.264Z,284.3
2023-01-17T07:06:40.174Z,330.3
2023-01-17T07:10:36.201Z,445.9
2023-01-17T07:12:35.556Z,492.7
2023-01-17T07:14:36.289Z,544.6
2023-01-17T07:16:43.472Z,601.8
2023-01-17T07:18:35.639Z,665.1
2023-01-17T07:20:39.538Z,699.2
2023-01-17T07:22:40.095Z,772.8
2023-01-17T07:24:36.188Z,812.4
2023-01-17T07:26:36.240Z,854.1
2023-01-17T07:30:36.215Z,943.9
2023-01-17T07:32:36.426Z,1043.1
2023-01-17T07:34:38.748Z,1096.6
2023-01-17T07:36:36.190Z,1152.9
2023-01-17T07:38:35.862Z,1212
2023-01-17T07:40:41.486Z,1274.1
2023-01-17T07:42:35.574Z,1339.4
2023-01-17T07:44:35.979Z,1408.1
2023-01-17T07:46:36.513Z,1480.3
2023-01-17T07:48:35.560Z,1556.2
2023-01-17T07:50:36.466Z,1636
2023-01-17T07:52:43.267Z,1719.9
2023-01-17T07:54:36.266Z,1719.9
2023-01-17T07:56:43.227Z,1808
2023-01-17T07:58:39.667Z,1808
2023-01-17T08:00:35.599Z,1900.7
2023-01-17T08:02:36.469Z,1998.2
2023-01-17T08:06:36.280Z,2100.6
2023-01-17T08:08:35.609Z,2208.3
2023-01-17T08:10:36.274Z,2321.6
2023-01-17T08:12:35.594Z,2440.6
2023-01-17T08:14:36.279Z,2565.7
2023-01-17T08:16:39.684Z,2697.3
2023-01-17T08:18:38.749Z,2835.6
2023-01-17T08:20:36.289Z,3133.8
2023-01-17T08:22:35.956Z,3641
2023-01-17T08:24:35.740Z,4230.2
2023-01-17T08:28:39.345Z,4914.8
2023-01-17T08:30:36.279Z,7332
2023-01-17T08:32:43.357Z,16317.6
2023-01-17T08:34:35.690Z,14044.7
2023-01-17T08:36:36.321Z,19930.4
2023-01-17T08:38:36.188Z,15521.8
2023-01-17T08:40:35.596Z,14044.7
2023-01-17T08:42:35.610Z,12088.4
2023-01-17T08:44:35.638Z,12088.4
2023-01-17T08:46:36.049Z,11498.8
2023-01-17T08:48:35.724Z,11498.8
2023-01-17T08:50:35.916Z,18958.4
2023-01-17T08:52:36.426Z,16317.6
2023-01-17T08:54:36.459Z,12708.2
2023-01-17T08:56:36.195Z,9897.1
2023-01-17T08:58:35.814Z,8955.3
2023-01-17T09:00:35.851Z,14044.7
2023-01-17T09:02:39.301Z,12708.2
2023-01-17T09:04:35.636Z,14764.8
2023-01-17T09:06:40.078Z,16317.6
2023-01-17T09:08:35.616Z,18958.4
2023-01-17T09:10:35.594Z,19930.4
2023-01-17T09:14:36.302Z,20952.2
2023-01-17T09:16:43.044Z,18958.4
2023-01-17T09:18:35.632Z,20952.2
2023-01-17T09:20:35.570Z,25591.1
2023-01-17T09:22:36.271Z,29732.6
2023-01-17T09:24:35.601Z,23155.8
2023-01-17T09:26:35.664Z,28282.5
2023-01-17T09:28:39.649Z,24343
2023-01-17T09:30:35.738Z,28282.5
2023-01-17T09:32:43.401Z,25591.1
2023-01-17T09:34:36.333Z,32859.6
2023-01-17T09:36:36.362Z,32859.6
2023-01-17T09:38:36.383Z,34544.4
2023-01-17T09:40:36.365Z,26903.2
2023-01-17T09:42:39.767Z,38177.4
2023-01-17T09:44:36.232Z,40134.8
2023-01-17T09:46:36.258Z,46630
2023-01-17T09:48:36.218Z,36315.5
2023-01-17T09:50:36.719Z,44355.9
2023-01-17T09:54:35.617Z,18958.4
2023-01-17T09:56:35.644Z,23155.8
2023-01-17T09:58:35.797Z,31257
2023-01-17T10:00:36.028Z,36315.5
2023-01-17T10:02:35.731Z,40134.8
2023-01-17T10:04:36.234Z,42192.6
2023-01-17T10:06:36.333Z,44355.9
2023-01-17T10:08:35.853Z,54176.4
2023-01-17T10:10:35.797Z,46630
2023-01-17T10:12:36.236Z,46630
2023-01-17T10:14:39.539Z,51534.2
2023-01-17T10:16:35.647Z,44355.9
2023-01-17T10:18:43.244Z,23155.8
2023-01-17T10:20:35.628Z,23155.8
2023-01-17T10:22:39.372Z,26903.2
2023-01-17T10:24:39.554Z,31257
2023-01-17T10:26:36.193Z,29732.6
2023-01-17T10:28:35.640Z,38177.4
2023-01-17T10:30:36.249Z,31257
2023-01-17T10:32:36.221Z,32859.6
2023-01-17T10:34:36.256Z,44355.9
2023-01-17T10:36:35.884Z,42192.6
2023-01-17T10:38:42.768Z,46630
2023-01-17T10:40:36.089Z,34544.4
2023-01-17T10:42:35.734Z,42192.6
2023-01-17T10:44:36.795Z,38177.4
2023-01-17T10:46:35.847Z,42192.6
2023-01-17T10:48:42.751Z,44355.9
2023-01-17T10:50:35.634Z,44355.9
2023-01-17T10:52:36.047Z,49020.8
2023-01-17T10:56:36.083Z,49020.8
2023-01-17T10:58:43.283Z,40134.8
2023-01-17T11:00:36.290Z,44355.9
2023-01-17T11:02:40.060Z,38177.4
2023-01-17T11:04:43.265Z,29732.6
2023-01-17T11:06:41.180Z,36315.5
2023-01-17T11:08:39.325Z,38177.4
2023-01-17T11:10:40.180Z,38177.4
2023-01-17T11:12:35.756Z,44355.9
2023-01-17T11:14:40.028Z,46630
2023-01-17T11:16:35.757Z,40134.8
2023-01-17T11:18:36.041Z,46630
2023-01-17T11:20:40.144Z,51534.2
2023-01-17T11:24:36.049Z,42192.6
2023-01-17T11:26:36.212Z,42192.6
2023-01-17T11:28:43.275Z,46630
2023-01-17T11:30:42.007Z,51534.2
2023-01-17T11:32:36.443Z,56954
2023-01-17T11:34:35.638Z,51534.2
2023-01-17T11:36:40.298Z,49020.8
2023-01-17T11:38:35.645Z,46630
2023-01-17T11:40:35.646Z,51534.2
2023-01-17T11:42:36.939Z,49020.8
2023-01-17T11:44:39.524Z,51534.2
2023-01-17T11:46:35.750Z,49020.8
2023-01-17T11:48:39.578Z,44355.9
2023-01-17T11:50:36.227Z,32859.6
2023-01-17T11:52:39.590Z,29732.6
2023-01-17T11:54:36.506Z,25591.1
2023-01-17T11:56:36.243Z,19930.4
2023-01-17T11:58:35.785Z,26903.2
2023-01-17T12:00:35.628Z,28282.5
2023-01-17T12:02:39.381Z,32859.6
2023-01-17T12:04:36.445Z,36315.5
2023-01-17T12:06:44.844Z,34544.4
2023-01-17T12:08:35.663Z,31257
2023-01-17T12:10:36.270Z,32859.6
2023-01-17T12:12:35.616Z,29732.6
2023-01-17T12:14:36.242Z,31257
2023-01-17T12:16:35.616Z,26903.2
2023-01-17T12:18:35.633Z,23155.8
2023-01-17T12:20:36.457Z,23155.8
2023-01-17T12:22:42.525Z,17154.2
2023-01-17T12:24:35.777Z,17154.2
2023-01-17T12:26:39.619Z,18033.7
2023-01-17T12:28:36.458Z,17154.2
2023-01-17T12:30:36.456Z,25591.1
2023-01-17T12:32:35.704Z,23155.8
2023-01-17T12:34:35.684Z,23155.8
2023-01-17T12:36:36.279Z,22026.5
2023-01-17T12:38:36.355Z,18958.4
2023-01-17T12:40:40.077Z,16317.6
2023-01-17T12:42:39.478Z,16317.6
2023-01-17T12:44:35.881Z,14764.8
2023-01-17T12:48:36.319Z,13359.7
2023-01-17T12:50:35.647Z,14764.8
2023-01-17T12:52:36.494Z,17154.2
2023-01-17T12:54:35.796Z,18033.7
2023-01-17T12:56:36.402Z,15521.8
2023-01-17T12:58:36.131Z,15521.8
2023-01-17T13:00:36.924Z,14044.7
2023-01-17T13:02:35.890Z,13359.7
2023-01-17T13:04:57.575Z,15521.8
2023-01-17T13:06:35.613Z,17154.2
2023-01-17T13:08:36.387Z,24343
2023-01-17T13:10:39.587Z,17154.2
2023-01-17T13:14:36.375Z,14044.7
2023-01-17T13:16:35.593Z,12708.2
2023-01-17T13:18:40.239Z,10938
2023-01-17T13:20:35.635Z,9414.4
2023-01-17T13:22:35.793Z,9414.4
2023-01-17T13:24:35.654Z,7707.9
2023-01-17T13:26:35.698Z,7332
2023-01-17T13:30:35.576Z,7707.9
2023-01-17T13:32:35.557Z,7707.9
2023-01-17T13:34:38.829Z,9897.1
2023-01-17T13:36:36.206Z,9897.1
2023-01-17T13:38:35.773Z,8518.5
2023-01-17T13:40:35.633Z,9897.1
2023-01-17T13:42:36.317Z,17154.2
2023-01-17T13:44:35.777Z,12088.4
2023-01-17T13:46:43.334Z,15521.8
2023-01-17T13:48:36.264Z,20952.2
2023-01-17T13:50:36.211Z,20952.2
2023-01-17T13:52:35.750Z,20952.2
2023-01-17T13:54:35.617Z,13359.7
2023-01-17T13:56:36.219Z,18033.7
2023-01-17T13:58:39.442Z,19930.4
2023-01-17T14:00:36.162Z,14764.8
2023-01-17T14:04:40.055Z,10404.6
2023-01-17T14:06:36.308Z,9897.1
2023-01-17T14:08:38.796Z,7707.9
2023-01-17T14:10:40.128Z,6974.4
2023-01-17T14:12:38.801Z,6634.2
2023-01-17T14:14:36.313Z,5431.7
2023-01-17T14:16:36.232Z,4675.1
2023-01-17T14:18:35.656Z,4230.2
2023-01-17T14:20:39.657Z,3827.6
2023-01-17T14:22:35.672Z,3463.4
2023-01-17T14:26:35.838Z,3133.8
2023-01-17T14:28:36.553Z,2981
2023-01-17T14:30:39.681Z,2981
2023-01-17T14:32:35.598Z,2835.6
2023-01-17T14:34:36.598Z,2835.6
2023-01-17T14:36:35.669Z,2697.3
2023-01-17T14:38:35.639Z,2565.7
2023-01-17T14:40:43.337Z,2321.6
2023-01-17T14:42:35.671Z,2208.3
2023-01-17T14:44:39.710Z,1998.2
2023-01-17T14:46:36.210Z,1808
2023-01-17T14:48:36.949Z,1636
2023-01-17T14:50:36.355Z,1480.3
2023-01-17T14:52:36.400Z,1339.4
2023-01-17T14:54:42.888Z,1152.9
2023-01-17T14:56:35.642Z,1043.1
2023-01-17T14:58:35.637Z,943.9
2023-01-17T15:00:36.278Z,854.1
2023-01-17T15:02:36.459Z,699.2
2023-01-17T15:04:36.394Z,665.1
2023-01-17T15:06:36.166Z,601.8
2023-01-17T15:08:36.543Z,572.5
2023-01-17T15:10:39.553Z,544.6
2023-01-17T15:12:40.177Z,518
2023-01-17T15:14:42.739Z,468.7
2023-01-17T15:16:39.272Z,445.9
2023-01-17T15:18:35.637Z,424.1
2023-01-17T15:20:36.108Z,383.8
2023-01-17T15:22:35.645Z,347.2
2023-01-17T15:24:42.031Z,298.9
2023-01-17T15:26:36.088Z,257.2
2023-01-17T15:28:35.794Z,221.4
2023-01-17T15:30:36.320Z,181.3
2023-01-17T15:32:35.640Z,156
2023-01-17T15:34:37.265Z,134.3
2023-01-17T15:36:36.572Z,115.6
2023-01-17T15:38:38.911Z,104.6
2023-01-17T15:40:36.577Z,90
2023-01-17T15:42:36.333Z,77.5
2023-01-17T15:44:46.669Z,66.7
2023-01-17T15:46:35.671Z,60.3
2023-01-17T15:48:36.294Z,51.9
2023-01-17T15:50:39.840Z,44.7
2023-01-17T15:52:43.496Z,36.6
2023-01-17T15:54:38.812Z,31.5
2023-01-17T15:56:35.550Z,27.1
2023-01-17T15:58:39.353Z,22.2
2023-01-17T16:02:35.821Z,14.2
2023-01-17T16:04:35.657Z,11
2023-01-17T16:06:35.716Z,8.2
2023-01-17T16:08:40.034Z,6
2023-01-17T16:10:35.809Z,4.3
2023-01-17T16:12:35.694Z,3.2
2023-01-17T16:14:51.462Z,2.1
2023-01-17T16:16:35.854Z,1.3
2023-01-17T16:18:43.078Z,0.9
2023-01-17T16:20:36.250Z,0.6
2023-01-17T16:22:42.413Z,0.4
2023-01-17T16:24:36.308Z,0.3
2023-01-17T16:26:43.318Z,0.2
2023-01-17T16:28:35.574Z,0.2
2023-01-17T16:30:36.129Z,0.1
2023-01-17T16:32:36.494Z,0.1
2023-01-17T16:34:39.435Z,0
2023-01-17T16:36:36.303Z,0
2023-01-17T16:38:39.744Z,0
2023-01-17T16:40:36.092Z,0
2023-01-17T16:42:35.651Z,0
2023-01-17T16:44:39.186Z,0.2
2023-01-17T16:46:35.703Z,0.1
2023-01-17T16:48:35.665Z,0.1
2023-01-17T16:50:39.737Z,0.1
2023-01-17T16:54:35.649Z,0
2023-01-17T16:56:35.973Z,1
2023-01-17T16:58:35.722Z,1
2023-01-17T17:00:39.607Z,1
2023-01-17T17:02:39.636Z,1
2023-01-17T17:04:35.649Z,1
2023-01-17T17:06:35.681Z,1
2023-01-17T17:08:39.681Z,1
2023-01-17T17:10:35.671Z,1
2023-01-17T17:12:36.224Z,1
2023-01-17T17:14:36.198Z,1
2023-01-17T17:16:36.387Z,1
2023-01-17T17:18:35.665Z,1
2023-01-17T17:20:35.591Z,1
2023-01-17T17:22:44.411Z,1
2023-01-17T17:24:36.305Z,1
2023-01-17T17:26:36.173Z,1
2023-01-17T17:28:35.771Z,1
2023-01-17T17:30:35.884Z,1
2023-01-17T17:32:36.315Z,1
2023-01-17T17:34:35.720Z,1
2023-01-17T17:36:36.614Z,1
2023-01-17T17:38:35.672Z,1
2023-01-17T17:40:35.676Z,1
2023-01-17T17:42:39.709Z,1
2023-01-17T17:44:36.441Z,1
2023-01-17T17:46:36.174Z,1
2023-01-17T17:48:39.147Z,1
2023-01-17T17:50:36.421Z,1
2023-01-17T17:52:36.105Z,1
2023-01-17T17:54:36.148Z,1
2023-01-17T17:56:35.686Z,1
2023-01-17T17:58:39.370Z,1
2023-01-17T18:00:42.871Z,1
2023-01-17T18:02:36.066Z,1
2023-01-17T18:04:35.612Z,1
2023-01-17T18:06:35.586Z,1
2023-01-17T18:08:39.518Z,1
2023-01-17T18:10:36.061Z,1
2023-01-17T18:12:35.681Z,1
2023-01-17T18:14:36.368Z,1
2023-01-17T18:16:36.266Z,1
2023-01-17T18:18:43.757Z,1
2023-01-17T18:20:36.160Z,1
2023-01-17T18:22:35.682Z,1
2023-01-17T18:24:36.430Z,1
2023-01-17T18:26:35.691Z,1
2023-01-17T18:32:36.467Z,1
2023-01-17T18:34:35.699Z,1
2023-01-17T18:36:35.693Z,1
2023-01-17T18:38:39.847Z,1
2023-01-17T18:40:35.795Z,1
2023-01-17T18:42:35.666Z,1
2023-01-17T18:44:36.483Z,1
2023-01-17T18:46:35.822Z,1
2023-01-17T18:48:36.220Z,1
2023-01-17T18:50:36.634Z,1
2023-01-17T18:52:35.975Z,1
2023-01-17T18:54:36.205Z,1
2023-01-17T18:56:35.778Z,1
2023-01-17T18:58:36.105Z,1
2023-01-17T19:00:35.902Z,1
2023-01-17T19:02:36.452Z,1
2023-01-17T19:04:36.533Z,1
2023-01-17T19:06:36.376Z,1
2023-01-17T19:08:37.323Z,1
2023-01-17T19:10:35.672Z,1
2023-01-17T19:12:35.900Z,1
2023-01-17T19:14:35.584Z,1
2023-01-17T19:16:35.806Z,1
2023-01-17T19:18:39.655Z,1
2023-01-17T19:20:42.853Z,1
2023-01-17T19:22:36.361Z,1
2023-01-17T19:24:39.627Z,1
2023-01-17T19:26:36.214Z,1
2023-01-17T19:28:39.813Z,1
2023-01-17T19:30:36.229Z,1
2023-01-17T19:32:35.680Z,1
2023-01-17T19:34:36.356Z,1
2023-01-17T19:36:36.551Z,1
2023-01-17T19:38:35.751Z,1
2023-01-17T19:40:36.445Z,1
2023-01-17T19:42:36.448Z,1
2023-01-17T19:44:35.687Z,1
2023-01-17T19:46:35.965Z,1
2023-01-17T19:48:35.964Z,1
2023-01-17T19:50:43.416Z,1
2023-01-17T19:52:39.711Z,1
2023-01-17T19:54:35.681Z,1
2023-01-17T19:56:35.681Z,1
2023-01-17T19:58:35.860Z,1
2023-01-17T20:00:46.395Z,1
2023-01-17T20:02:35.706Z,1
2023-01-17T20:04:43.426Z,1
2023-01-17T20:06:35.693Z,1
2023-01-17T20:08:38.871Z,1
2023-01-17T20:10:35.853Z,1
2023-01-17T20:12:35.856Z,1
2023-01-17T20:14:35.700Z,1
2023-01-17T20:16:36.086Z,1
2023-01-17T20:18:35.722Z,1
2023-01-17T20:20:39.563Z,1
2023-01-17T20:22:35.896Z,1
2023-01-17T20:24:35.847Z,1
2023-01-17T20:26:39.672Z,1
2023-01-17T20:28:36.246Z,1
2023-01-17T20:30:40.202Z,1
2023-01-17T20:32:39.286Z,1
2023-01-17T20:34:39.668Z,1
2023-01-17T20:36:39.750Z,1
2023-01-17T20:38:35.675Z,1
2023-01-17T20:40:39.546Z,1
2023-01-17T20:42:36.323Z,1
2023-01-17T20:44:35.701Z,1
2023-01-17T20:46:42.872Z,1
2023-01-17T20:48:36.387Z,1
2023-01-17T20:50:39.694Z,1
2023-01-17T20:52:36.206Z,1
2023-01-17T20:54:36.123Z,1
2023-01-17T20:56:35.779Z,1
2023-01-17T20:58:35.718Z,1
2023-01-17T21:00:39.533Z,1
2023-01-17T21:02:39.307Z,1
2023-01-17T21:04:35.807Z,1
2023-01-17T21:06:35.693Z,1
2023-01-17T21:08:43.376Z,1
2023-01-17T21:10:36.619Z,1
2023-01-17T21:12:36.265Z,1
2023-01-17T21:14:36.442Z,1
2023-01-17T21:16:35.913Z,1
2023-01-17T21:20:39.598Z,1
2023-01-17T21:22:36.337Z,1
2023-01-17T21:24:37.040Z,1
2023-01-17T21:26:36.259Z,1
2023-01-17T21:28:36.352Z,1
2023-01-17T21:30:36.147Z,1
2023-01-17T21:32:36.500Z,1
2023-01-17T21:34:39.847Z,1
2023-01-17T21:36:35.905Z,1
2023-01-17T21:38:38.511Z,1
2023-01-17T21:40:39.743Z,1
2023-01-17T21:42:36.078Z,1
2023-01-17T21:44:35.732Z,1
2023-01-17T21:46:36.249Z,1
2023-01-17T21:48:36.582Z,1
2023-01-17T21:50:35.674Z,1
2023-01-17T21:52:35.953Z,1
2023-01-17T21:54:43.505Z,1
2023-01-17T21:56:36.413Z,1
2023-01-17T21:58:39.739Z,1
2023-01-17T22:00:35.813Z,1
2023-01-17T22:02:35.730Z,1
2023-01-17T22:04:39.641Z,1
2023-01-17T22:06:39.681Z,1
2023-01-17T22:08:35.696Z,1
2023-01-17T22:10:43.446Z,1
2023-01-17T22:12:39.640Z,1
2023-01-17T22:14:35.700Z,1
2023-01-17T22:16:35.982Z,1
2023-01-17T22:18:35.709Z,1
2023-01-17T22:20:39.811Z,1
2023-01-17T22:22:35.737Z,1
2023-01-17T22:24:43.326Z,1
2023-01-17T22:26:35.711Z,1
2023-01-17T22:28:36.264Z,1
2023-01-17T22:30:43.520Z,1
2023-01-17T22:32:35.750Z,1
2023-01-17T22:34:35.704Z,1
2023-01-17T22:36:35.707Z,1
2023-01-17T22:38:36.479Z,1
2023-01-17T22:40:39.747Z,1
2023-01-17T22:42:35.738Z,1
2023-01-17T22:44:35.918Z,1
2023-01-17T22:46:35.844Z,1
2023-01-17T22:48:36.158Z,1
2023-01-17T22:50:36.538Z,1
2023-01-17T22:52:38.862Z,1
2023-01-17T22:54:43.283Z,1
2023-01-17T22:56:36.532Z,1
2023-01-17T22:58:36.170Z,1
2023-01-17T23:00:42.987Z,1
2023-01-17T23:02:36.457Z,1
2023-01-17T23:04:35.800Z,1
2023-01-17T23:06:35.923Z,1
2023-01-17T23:08:35.709Z,1
2023-01-17T23:10:36.336Z,1
2023-01-17T23:12:35.756Z,1
2023-01-17T23:14:43.433Z,1
2023-01-17T23:16:36.385Z,1
2023-01-17T23:18:39.664Z,1
2023-01-17T23:20:39.718Z,1
2023-01-17T23:24:38.971Z,1
2023-01-17T23:26:38.848Z,1
2023-01-17T23:28:35.824Z,1
2023-01-17T23:30:35.732Z,1
2023-01-17T23:32:35.713Z,1
2023-01-17T23:34:39.889Z,1
2023-01-17T23:36:36.600Z,1
2023-01-17T23:38:36.277Z,1
2023-01-17T23:40:36.461Z,1
2023-01-17T23:42:36.154Z,1
2023-01-17T23:44:42.584Z,1
2023-01-17T23:46:35.731Z,1
2023-01-17T23:48:38.855Z,1
2023-01-17T23:50:39.545Z,1
2023-01-17T23:52:36.601Z,1
2023-01-17T23:54:35.862Z,1
2023-01-17T23:56:35.899Z,1
2023-01-17T23:58:39.826Z,1
